sensor_id;sensor_type;location;lat;lon;timestamp;P1;durP1;ratioP1;P2;durP2;ratioP2
67867;SDS011;54672;46.096;14.470;2022-12-18T00:01:28;25.52;;;13.63;;
67867;SDS011;54672;46.096;14.470;2022-12-18T00:03:56;27.00;;;12.90;;
67867;SDS011;54672;46.096;14.470;2022-12-18T00:06:22;33.40;;;13.25;;
67867;SDS011;54672;46.096;14.470;2022-12-18T00:08:49;31.95;;;13.18;;
67867;SDS011;54672;46.096;14.470;2022-12-18T00:11:16;28.40;;;12.93;;
67867;SDS011;54672;46.096;14.470;2022-12-18T00:13:42;27.75;;;13.38;;
67867;SDS011;54672;46.096;14.470;2022-12-18T00:16:11;30.85;;;13.88;;
67867;SDS011;54672;46.096;14.470;2022-12-18T00:18:37;35.63;;;13.77;;
67867;SDS011;54672;46.096;14.470;2022-12-18T00:21:04;35.78;;;13.35;;
67867;SDS011;54672;46.096;14.470;2022-12-18T00:23:31;31.55;;;13.65;;
67867;SDS011;54672;46.096;14.470;2022-12-18T00:25:59;32.72;;;13.57;;
67867;SDS011;54672;46.096;14.470;2022-12-18T00:28:28;25.27;;;11.93;;
67867;SDS011;54672;46.096;14.470;2022-12-18T00:31:07;26.75;;;12.23;;
67867;SDS011;54672;46.096;14.470;2022-12-18T00:33:35;26.23;;;12.15;;
67867;SDS011;54672;46.096;14.470;2022-12-18T00:36:01;30.73;;;12.88;;
67867;SDS011;54672;46.096;14.470;2022-12-18T00:38:31;31.33;;;13.00;;
67867;SDS011;54672;46.096;14.470;2022-12-18T00:40:57;25.77;;;12.27;;
67867;SDS011;54672;46.096;14.470;2022-12-18T00:43:23;31.55;;;12.90;;
67867;SDS011;54672;46.096;14.470;2022-12-18T00:45:48;30.77;;;13.43;;
67867;SDS011;54672;46.096;14.470;2022-12-18T00:48:14;30.55;;;12.73;;
67867;SDS011;54672;46.096;14.470;2022-12-18T00:50:39;31.27;;;13.60;;
67867;SDS011;54672;46.096;14.470;2022-12-18T00:53:04;26.50;;;11.90;;
67867;SDS011;54672;46.096;14.470;2022-12-18T00:55:30;25.58;;;12.55;;
67867;SDS011;54672;46.096;14.470;2022-12-18T00:57:56;29.23;;;11.75;;
67867;SDS011;54672;46.096;14.470;2022-12-18T01:00:22;27.95;;;12.05;;
67867;SDS011;54672;46.096;14.470;2022-12-18T01:02:47;27.10;;;12.32;;
67867;SDS011;54672;46.096;14.470;2022-12-18T01:05:13;35.72;;;14.45;;
67867;SDS011;54672;46.096;14.470;2022-12-18T01:07:39;34.83;;;13.60;;
67867;SDS011;54672;46.096;14.470;2022-12-18T01:10:05;28.33;;;12.75;;
67867;SDS011;54672;46.096;14.470;2022-12-18T01:12:32;27.65;;;12.60;;
67867;SDS011;54672;46.096;14.470;2022-12-18T01:14:57;30.15;;;13.43;;
67867;SDS011;54672;46.096;14.470;2022-12-18T01:17:22;32.70;;;12.88;;
67867;SDS011;54672;46.096;14.470;2022-12-18T01:19:48;30.13;;;13.07;;
67867;SDS011;54672;46.096;14.470;2022-12-18T01:22:13;29.77;;;12.30;;
67867;SDS011;54672;46.096;14.470;2022-12-18T01:24:39;31.60;;;13.43;;
67867;SDS011;54672;46.096;14.470;2022-12-18T01:27:04;34.13;;;14.00;;
67867;SDS011;54672;46.096;14.470;2022-12-18T01:29:29;33.38;;;13.10;;
67867;SDS011;54672;46.096;14.470;2022-12-18T01:31:55;36.30;;;14.93;;
67867;SDS011;54672;46.096;14.470;2022-12-18T01:34:21;35.63;;;13.82;;
67867;SDS011;54672;46.096;14.470;2022-12-18T01:36:47;36.35;;;14.73;;
67867;SDS011;54672;46.096;14.470;2022-12-18T01:39:13;32.08;;;13.68;;
67867;SDS011;54672;46.096;14.470;2022-12-18T01:41:39;31.65;;;13.45;;
67867;SDS011;54672;46.096;14.470;2022-12-18T01:50:08;32.25;;;14.07;;
67867;SDS011;54672;46.096;14.470;2022-12-18T01:52:34;33.83;;;14.52;;
67867;SDS011;54672;46.096;14.470;2022-12-18T01:55:00;33.17;;;14.75;;
67867;SDS011;54672;46.096;14.470;2022-12-18T01:57:28;32.70;;;13.07;;
67867;SDS011;54672;46.096;14.470;2022-12-18T01:59:55;38.58;;;15.80;;
67867;SDS011;54672;46.096;14.470;2022-12-18T02:02:23;34.97;;;15.75;;
67867;SDS011;54672;46.096;14.470;2022-12-18T02:04:51;32.75;;;15.00;;
67867;SDS011;54672;46.096;14.470;2022-12-18T02:10:27;39.40;;;16.58;;
67867;SDS011;54672;46.096;14.470;2022-12-18T02:15:42;37.83;;;15.93;;
67867;SDS011;54672;46.096;14.470;2022-12-18T02:18:20;38.17;;;16.33;;
67867;SDS011;54672;46.096;14.470;2022-12-18T02:20:49;38.40;;;16.05;;
67867;SDS011;54672;46.096;14.470;2022-12-18T02:23:33;31.42;;;13.52;;
67867;SDS011;54672;46.096;14.470;2022-12-18T02:26:07;38.90;;;15.20;;
67867;SDS011;54672;46.096;14.470;2022-12-18T02:28:44;40.70;;;15.20;;
67867;SDS011;54672;46.096;14.470;2022-12-18T02:31:15;34.85;;;15.48;;
67867;SDS011;54672;46.096;14.470;2022-12-18T02:33:44;35.75;;;13.85;;
67867;SDS011;54672;46.096;14.470;2022-12-18T02:36:10;34.42;;;14.70;;
67867;SDS011;54672;46.096;14.470;2022-12-18T02:38:39;35.13;;;14.55;;
67867;SDS011;54672;46.096;14.470;2022-12-18T02:41:06;36.08;;;14.98;;
67867;SDS011;54672;46.096;14.470;2022-12-18T02:43:32;31.15;;;13.80;;
67867;SDS011;54672;46.096;14.470;2022-12-18T02:45:58;35.25;;;14.38;;
67867;SDS011;54672;46.096;14.470;2022-12-18T02:48:28;37.10;;;15.20;;
67867;SDS011;54672;46.096;14.470;2022-12-18T02:53:40;26.55;;;11.25;;
67867;SDS011;54672;46.096;14.470;2022-12-18T02:56:15;28.85;;;13.27;;
67867;SDS011;54672;46.096;14.470;2022-12-18T03:04:00;24.48;;;10.27;;
67867;SDS011;54672;46.096;14.470;2022-12-18T03:06:32;32.17;;;15.07;;
67867;SDS011;54672;46.096;14.470;2022-12-18T03:09:09;36.03;;;14.57;;
67867;SDS011;54672;46.096;14.470;2022-12-18T03:11:39;21.67;;;10.18;;
67867;SDS011;54672;46.096;14.470;2022-12-18T03:14:28;31.75;;;13.35;;
67867;SDS011;54672;46.096;14.470;2022-12-18T03:16:58;38.13;;;14.10;;
67867;SDS011;54672;46.096;14.470;2022-12-18T03:19:27;32.90;;;13.18;;
67867;SDS011;54672;46.096;14.470;2022-12-18T03:21:55;32.45;;;12.88;;
67867;SDS011;54672;46.096;14.470;2022-12-18T03:24:22;38.30;;;14.10;;
67867;SDS011;54672;46.096;14.470;2022-12-18T03:26:52;33.65;;;14.05;;
67867;SDS011;54672;46.096;14.470;2022-12-18T03:29:23;29.83;;;12.40;;
67867;SDS011;54672;46.096;14.470;2022-12-18T03:31:55;29.45;;;12.70;;
67867;SDS011;54672;46.096;14.470;2022-12-18T03:34:26;25.98;;;13.13;;
67867;SDS011;54672;46.096;14.470;2022-12-18T03:36:56;41.50;;;13.93;;
67867;SDS011;54672;46.096;14.470;2022-12-18T03:39:22;38.30;;;15.07;;
67867;SDS011;54672;46.096;14.470;2022-12-18T03:44:44;36.80;;;15.05;;
67867;SDS011;54672;46.096;14.470;2022-12-18T03:50:11;31.50;;;11.55;;
67867;SDS011;54672;46.096;14.470;2022-12-18T03:52:51;25.00;;;11.50;;
67867;SDS011;54672;46.096;14.470;2022-12-18T03:55:23;23.25;;;10.20;;
67867;SDS011;54672;46.096;14.470;2022-12-18T03:57:52;31.08;;;11.90;;
67867;SDS011;54672;46.096;14.470;2022-12-18T04:00:18;33.05;;;10.80;;
67867;SDS011;54672;46.096;14.470;2022-12-18T04:02:46;27.67;;;11.93;;
67867;SDS011;54672;46.096;14.470;2022-12-18T04:05:16;27.42;;;11.93;;
67867;SDS011;54672;46.096;14.470;2022-12-18T04:07:44;27.83;;;12.07;;
67867;SDS011;54672;46.096;14.470;2022-12-18T04:10:11;27.08;;;11.40;;
67867;SDS011;54672;46.096;14.470;2022-12-18T04:12:38;28.05;;;10.90;;
67867;SDS011;54672;46.096;14.470;2022-12-18T04:15:04;28.67;;;12.38;;
67867;SDS011;54672;46.096;14.470;2022-12-18T04:17:30;23.45;;;9.65;;
67867;SDS011;54672;46.096;14.470;2022-12-18T04:19:55;33.15;;;13.93;;
67867;SDS011;54672;46.096;14.470;2022-12-18T04:22:21;23.50;;;10.93;;
67867;SDS011;54672;46.096;14.470;2022-12-18T04:24:46;27.95;;;12.30;;
67867;SDS011;54672;46.096;14.470;2022-12-18T04:27:11;23.55;;;10.68;;
67867;SDS011;54672;46.096;14.470;2022-12-18T04:29:37;27.23;;;11.68;;
67867;SDS011;54672;46.096;14.470;2022-12-18T04:32:02;23.42;;;10.02;;
67867;SDS011;54672;46.096;14.470;2022-12-18T04:34:28;24.20;;;10.20;;
67867;SDS011;54672;46.096;14.470;2022-12-18T04:36:53;27.90;;;10.70;;
67867;SDS011;54672;46.096;14.470;2022-12-18T04:39:19;30.85;;;12.00;;
67867;SDS011;54672;46.096;14.470;2022-12-18T04:41:44;29.15;;;12.15;;
67867;SDS011;54672;46.096;14.470;2022-12-18T04:44:09;28.23;;;11.85;;
67867;SDS011;54672;46.096;14.470;2022-12-18T04:46:35;27.63;;;12.10;;
67867;SDS011;54672;46.096;14.470;2022-12-18T04:49:00;29.65;;;12.32;;
67867;SDS011;54672;46.096;14.470;2022-12-18T04:51:26;33.20;;;14.55;;
67867;SDS011;54672;46.096;14.470;2022-12-18T04:53:51;33.35;;;13.40;;
67867;SDS011;54672;46.096;14.470;2022-12-18T04:56:17;23.70;;;12.10;;
67867;SDS011;54672;46.096;14.470;2022-12-18T04:58:43;31.23;;;14.50;;
67867;SDS011;54672;46.096;14.470;2022-12-18T05:01:09;26.95;;;12.70;;
67867;SDS011;54672;46.096;14.470;2022-12-18T05:03:37;28.90;;;12.27;;
67867;SDS011;54672;46.096;14.470;2022-12-18T05:06:02;32.88;;;14.27;;
67867;SDS011;54672;46.096;14.470;2022-12-18T05:08:29;22.30;;;10.25;;
67867;SDS011;54672;46.096;14.470;2022-12-18T05:10:58;34.65;;;14.88;;
67867;SDS011;54672;46.096;14.470;2022-12-18T05:13:28;32.50;;;13.75;;
67867;SDS011;54672;46.096;14.470;2022-12-18T05:15:54;34.38;;;13.02;;
67867;SDS011;54672;46.096;14.470;2022-12-18T05:18:20;37.45;;;15.07;;
67867;SDS011;54672;46.096;14.470;2022-12-18T05:20:46;31.75;;;14.00;;
67867;SDS011;54672;46.096;14.470;2022-12-18T05:23:12;35.95;;;14.23;;
67867;SDS011;54672;46.096;14.470;2022-12-18T05:25:37;31.38;;;13.82;;
67867;SDS011;54672;46.096;14.470;2022-12-18T05:28:03;48.03;;;15.82;;
67867;SDS011;54672;46.096;14.470;2022-12-18T05:30:28;34.22;;;14.20;;
67867;SDS011;54672;46.096;14.470;2022-12-18T05:32:54;39.20;;;15.88;;
67867;SDS011;54672;46.096;14.470;2022-12-18T05:35:19;36.38;;;14.77;;
67867;SDS011;54672;46.096;14.470;2022-12-18T05:37:45;33.85;;;15.10;;
67867;SDS011;54672;46.096;14.470;2022-12-18T05:40:10;30.20;;;13.38;;
67867;SDS011;54672;46.096;14.470;2022-12-18T05:42:36;35.92;;;14.50;;
67867;SDS011;54672;46.096;14.470;2022-12-18T05:45:01;37.55;;;14.32;;
67867;SDS011;54672;46.096;14.470;2022-12-18T05:47:27;37.30;;;15.98;;
67867;SDS011;54672;46.096;14.470;2022-12-18T05:49:53;33.17;;;14.30;;
67867;SDS011;54672;46.096;14.470;2022-12-18T05:52:19;26.70;;;13.05;;
67867;SDS011;54672;46.096;14.470;2022-12-18T05:54:44;29.48;;;13.73;;
67867;SDS011;54672;46.096;14.470;2022-12-18T05:57:10;33.90;;;14.40;;
67867;SDS011;54672;46.096;14.470;2022-12-18T05:59:35;39.60;;;16.42;;
67867;SDS011;54672;46.096;14.470;2022-12-18T06:02:00;28.17;;;13.98;;
67867;SDS011;54672;46.096;14.470;2022-12-18T06:04:26;31.08;;;12.32;;
67867;SDS011;54672;46.096;14.470;2022-12-18T06:06:54;29.35;;;13.40;;
67867;SDS011;54672;46.096;14.470;2022-12-18T06:09:20;28.23;;;12.77;;
67867;SDS011;54672;46.096;14.470;2022-12-18T06:11:45;27.42;;;12.43;;
67867;SDS011;54672;46.096;14.470;2022-12-18T06:14:10;34.38;;;12.98;;
67867;SDS011;54672;46.096;14.470;2022-12-18T06:16:36;38.45;;;15.70;;
67867;SDS011;54672;46.096;14.470;2022-12-18T06:19:02;35.95;;;13.80;;
67867;SDS011;54672;46.096;14.470;2022-12-18T06:21:29;37.75;;;16.73;;
67867;SDS011;54672;46.096;14.470;2022-12-18T06:23:55;34.42;;;15.60;;
67867;SDS011;54672;46.096;14.470;2022-12-18T06:26:21;35.55;;;15.32;;
67867;SDS011;54672;46.096;14.470;2022-12-18T06:28:46;36.80;;;15.20;;
67867;SDS011;54672;46.096;14.470;2022-12-18T06:31:12;46.58;;;17.67;;
67867;SDS011;54672;46.096;14.470;2022-12-18T06:33:37;35.85;;;16.77;;
67867;SDS011;54672;46.096;14.470;2022-12-18T06:36:07;45.92;;;17.13;;
67867;SDS011;54672;46.096;14.470;2022-12-18T06:38:35;43.35;;;19.05;;
67867;SDS011;54672;46.096;14.470;2022-12-18T06:46:01;39.25;;;15.98;;
67867;SDS011;54672;46.096;14.470;2022-12-18T06:48:27;39.42;;;16.27;;
67867;SDS011;54672;46.096;14.470;2022-12-18T06:50:53;50.25;;;20.60;;
67867;SDS011;54672;46.096;14.470;2022-12-18T06:53:18;50.85;;;23.75;;
67867;SDS011;54672;46.096;14.470;2022-12-18T06:55:43;51.80;;;22.30;;
67867;SDS011;54672;46.096;14.470;2022-12-18T06:58:09;38.83;;;18.02;;
67867;SDS011;54672;46.096;14.470;2022-12-18T07:00:34;38.13;;;17.48;;
67867;SDS011;54672;46.096;14.470;2022-12-18T07:03:00;50.15;;;20.75;;
67867;SDS011;54672;46.096;14.470;2022-12-18T07:05:25;58.08;;;24.05;;
67867;SDS011;54672;46.096;14.470;2022-12-18T07:07:50;47.63;;;20.88;;
67867;SDS011;54672;46.096;14.470;2022-12-18T07:10:16;50.33;;;19.52;;
67867;SDS011;54672;46.096;14.470;2022-12-18T07:12:41;47.00;;;21.52;;
67867;SDS011;54672;46.096;14.470;2022-12-18T07:15:07;57.67;;;24.30;;
67867;SDS011;54672;46.096;14.470;2022-12-18T07:17:32;48.40;;;20.70;;
67867;SDS011;54672;46.096;14.470;2022-12-18T07:19:58;43.45;;;20.48;;
67867;SDS011;54672;46.096;14.470;2022-12-18T07:22:24;47.28;;;20.95;;
67867;SDS011;54672;46.096;14.470;2022-12-18T07:24:50;47.35;;;20.80;;
67867;SDS011;54672;46.096;14.470;2022-12-18T07:27:16;47.67;;;20.55;;
67867;SDS011;54672;46.096;14.470;2022-12-18T07:29:41;48.92;;;21.58;;
67867;SDS011;54672;46.096;14.470;2022-12-18T07:32:07;140.10;;;49.90;;
67867;SDS011;54672;46.096;14.470;2022-12-18T07:34:33;84.13;;;35.45;;
67867;SDS011;54672;46.096;14.470;2022-12-18T07:36:58;73.50;;;30.67;;
67867;SDS011;54672;46.096;14.470;2022-12-18T07:39:24;61.35;;;26.15;;
67867;SDS011;54672;46.096;14.470;2022-12-18T07:41:49;53.75;;;21.20;;
67867;SDS011;54672;46.096;14.470;2022-12-18T07:44:33;58.45;;;24.65;;
67867;SDS011;54672;46.096;14.470;2022-12-18T07:46:59;58.60;;;25.35;;
67867;SDS011;54672;46.096;14.470;2022-12-18T07:49:24;69.47;;;29.48;;
67867;SDS011;54672;46.096;14.470;2022-12-18T07:51:50;57.75;;;23.00;;
67867;SDS011;54672;46.096;14.470;2022-12-18T07:54:15;64.03;;;27.38;;
67867;SDS011;54672;46.096;14.470;2022-12-18T07:56:40;69.75;;;30.70;;
67867;SDS011;54672;46.096;14.470;2022-12-18T07:59:06;79.68;;;31.08;;
67867;SDS011;54672;46.096;14.470;2022-12-18T08:01:32;76.45;;;32.03;;
67867;SDS011;54672;46.096;14.470;2022-12-18T08:03:58;62.50;;;26.38;;
67867;SDS011;54672;46.096;14.470;2022-12-18T08:06:23;74.97;;;30.40;;
67867;SDS011;54672;46.096;14.470;2022-12-18T08:08:50;70.00;;;32.30;;
67867;SDS011;54672;46.096;14.470;2022-12-18T08:11:18;69.43;;;32.00;;
67867;SDS011;54672;46.096;14.470;2022-12-18T08:13:44;66.13;;;31.17;;
67867;SDS011;54672;46.096;14.470;2022-12-18T08:16:09;64.20;;;31.25;;
67867;SDS011;54672;46.096;14.470;2022-12-18T08:18:36;58.40;;;27.33;;
67867;SDS011;54672;46.096;14.470;2022-12-18T08:21:09;83.13;;;33.80;;
67867;SDS011;54672;46.096;14.470;2022-12-18T08:23:39;61.83;;;27.42;;
67867;SDS011;54672;46.096;14.470;2022-12-18T08:26:05;52.00;;;25.63;;
67867;SDS011;54672;46.096;14.470;2022-12-18T08:28:31;48.03;;;23.75;;
67867;SDS011;54672;46.096;14.470;2022-12-18T08:30:56;40.63;;;18.02;;
67867;SDS011;54672;46.096;14.470;2022-12-18T08:33:22;42.13;;;16.92;;
67867;SDS011;54672;46.096;14.470;2022-12-18T08:35:47;40.05;;;17.55;;
67867;SDS011;54672;46.096;14.470;2022-12-18T08:38:13;42.63;;;18.33;;
67867;SDS011;54672;46.096;14.470;2022-12-18T08:40:38;42.75;;;17.98;;
67867;SDS011;54672;46.096;14.470;2022-12-18T08:43:03;43.92;;;16.75;;
67867;SDS011;54672;46.096;14.470;2022-12-18T08:45:48;44.30;;;17.48;;
67867;SDS011;54672;46.096;14.470;2022-12-18T08:48:13;36.25;;;14.82;;
67867;SDS011;54672;46.096;14.470;2022-12-18T08:50:39;38.80;;;15.32;;
67867;SDS011;54672;46.096;14.470;2022-12-18T08:53:04;31.45;;;13.57;;
67867;SDS011;54672;46.096;14.470;2022-12-18T08:55:30;30.35;;;13.93;;
67867;SDS011;54672;46.096;14.470;2022-12-18T08:57:55;30.20;;;13.55;;
67867;SDS011;54672;46.096;14.470;2022-12-18T09:00:21;34.67;;;14.15;;
67867;SDS011;54672;46.096;14.470;2022-12-18T09:02:46;26.90;;;13.32;;
67867;SDS011;54672;46.096;14.470;2022-12-18T09:05:11;31.55;;;14.27;;
67867;SDS011;54672;46.096;14.470;2022-12-18T09:07:37;32.42;;;14.85;;
67867;SDS011;54672;46.096;14.470;2022-12-18T09:10:02;28.98;;;13.52;;
67867;SDS011;54672;46.096;14.470;2022-12-18T09:12:28;111.10;;;48.53;;
67867;SDS011;54672;46.096;14.470;2022-12-18T09:14:54;73.47;;;31.10;;
67867;SDS011;54672;46.096;14.470;2022-12-18T09:17:19;32.08;;;15.02;;
67867;SDS011;54672;46.096;14.470;2022-12-18T09:19:45;30.80;;;13.82;;
67867;SDS011;54672;46.096;14.470;2022-12-18T09:22:10;28.35;;;12.85;;
67867;SDS011;54672;46.096;14.470;2022-12-18T09:24:36;35.58;;;14.82;;
67867;SDS011;54672;46.096;14.470;2022-12-18T09:27:01;29.85;;;13.25;;
67867;SDS011;54672;46.096;14.470;2022-12-18T09:29:27;37.13;;;15.65;;
67867;SDS011;54672;46.096;14.470;2022-12-18T09:31:52;31.90;;;14.75;;
67867;SDS011;54672;46.096;14.470;2022-12-18T09:34:17;31.95;;;15.35;;
67867;SDS011;54672;46.096;14.470;2022-12-18T09:36:45;31.90;;;13.35;;
67867;SDS011;54672;46.096;14.470;2022-12-18T09:39:11;34.92;;;14.75;;
67867;SDS011;54672;46.096;14.470;2022-12-18T09:44:10;29.05;;;13.00;;
67867;SDS011;54672;46.096;14.470;2022-12-18T09:46:37;29.50;;;13.25;;
67867;SDS011;54672;46.096;14.470;2022-12-18T09:49:10;30.95;;;12.68;;
67867;SDS011;54672;46.096;14.470;2022-12-18T09:54:30;28.70;;;12.75;;
67867;SDS011;54672;46.096;14.470;2022-12-18T09:57:00;30.30;;;12.20;;
67867;SDS011;54672;46.096;14.470;2022-12-18T09:59:34;30.80;;;12.10;;
67867;SDS011;54672;46.096;14.470;2022-12-18T10:02:15;27.23;;;10.95;;
67867;SDS011;54672;46.096;14.470;2022-12-18T10:04:43;56.28;;;22.75;;
67867;SDS011;54672;46.096;14.470;2022-12-18T10:07:13;21.35;;;9.60;;
67867;SDS011;54672;46.096;14.470;2022-12-18T10:09:49;24.55;;;9.57;;
67867;SDS011;54672;46.096;14.470;2022-12-18T10:15:02;15.30;;;6.47;;
67867;SDS011;54672;46.096;14.470;2022-12-18T10:17:40;13.77;;;6.55;;
67867;SDS011;54672;46.096;14.470;2022-12-18T10:20:27;54.33;;;18.98;;
67867;SDS011;54672;46.096;14.470;2022-12-18T10:23:02;21.95;;;10.23;;
67867;SDS011;54672;46.096;14.470;2022-12-18T10:26:00;17.23;;;6.53;;
67867;SDS011;54672;46.096;14.470;2022-12-18T10:28:29;14.55;;;6.43;;
67867;SDS011;54672;46.096;14.470;2022-12-18T10:30:56;14.45;;;6.95;;
67867;SDS011;54672;46.096;14.470;2022-12-18T10:33:23;17.90;;;8.27;;
67867;SDS011;54672;46.096;14.470;2022-12-18T10:35:54;25.50;;;9.63;;
67867;SDS011;54672;46.096;14.470;2022-12-18T10:38:24;31.23;;;11.80;;
67867;SDS011;54672;46.096;14.470;2022-12-18T10:40:52;14.77;;;6.45;;
67867;SDS011;54672;46.096;14.470;2022-12-18T10:43:39;39.75;;;12.00;;
67867;SDS011;54672;46.096;14.470;2022-12-18T10:48:33;40.70;;;14.65;;
67867;SDS011;54672;46.096;14.470;2022-12-18T10:51:01;23.38;;;9.80;;
67867;SDS011;54672;46.096;14.470;2022-12-18T10:53:28;15.63;;;6.32;;
67867;SDS011;54672;46.096;14.470;2022-12-18T10:55:56;26.08;;;9.77;;
67867;SDS011;54672;46.096;14.470;2022-12-18T11:03:58;25.08;;;10.52;;
67867;SDS011;54672;46.096;14.470;2022-12-18T11:06:26;16.30;;;7.38;;
67867;SDS011;54672;46.096;14.470;2022-12-18T11:08:58;26.00;;;10.25;;
67867;SDS011;54672;46.096;14.470;2022-12-18T11:11:25;14.05;;;4.60;;
67867;SDS011;54672;46.096;14.470;2022-12-18T11:14:02;31.25;;;11.80;;
67867;SDS011;54672;46.096;14.470;2022-12-18T11:16:28;17.63;;;6.78;;
67867;SDS011;54672;46.096;14.470;2022-12-18T11:19:07;24.55;;;10.48;;
67867;SDS011;54672;46.096;14.470;2022-12-18T11:21:47;20.90;;;8.23;;
67867;SDS011;54672;46.096;14.470;2022-12-18T11:26:53;11.82;;;5.78;;
67867;SDS011;54672;46.096;14.470;2022-12-18T11:29:23;13.77;;;6.18;;
67867;SDS011;54672;46.096;14.470;2022-12-18T11:32:06;13.25;;;6.22;;
67867;SDS011;54672;46.096;14.470;2022-12-18T11:34:46;43.90;;;14.35;;
67867;SDS011;54672;46.096;14.470;2022-12-18T11:37:16;38.10;;;14.77;;
67867;SDS011;54672;46.096;14.470;2022-12-18T11:39:46;22.45;;;8.70;;
67867;SDS011;54672;46.096;14.470;2022-12-18T11:42:25;11.27;;;4.30;;
67867;SDS011;54672;46.096;14.470;2022-12-18T11:47:43;21.98;;;9.25;;
67867;SDS011;54672;46.096;14.470;2022-12-18T11:50:13;22.67;;;9.93;;
67867;SDS011;54672;46.096;14.470;2022-12-18T11:52:45;15.93;;;6.30;;
67867;SDS011;54672;46.096;14.470;2022-12-18T11:55:12;17.92;;;8.35;;
67867;SDS011;54672;46.096;14.470;2022-12-18T12:00:18;17.25;;;7.78;;
67867;SDS011;54672;46.096;14.470;2022-12-18T12:07:55;16.30;;;6.03;;
67867;SDS011;54672;46.096;14.470;2022-12-18T12:13:43;26.45;;;8.15;;
67867;SDS011;54672;46.096;14.470;2022-12-18T12:16:39;19.05;;;8.57;;
67867;SDS011;54672;46.096;14.470;2022-12-18T12:21:42;21.13;;;8.55;;
67867;SDS011;54672;46.096;14.470;2022-12-18T12:35:08;16.90;;;7.35;;
67867;SDS011;54672;46.096;14.470;2022-12-18T12:38:05;16.27;;;8.15;;
67867;SDS011;54672;46.096;14.470;2022-12-18T12:40:32;17.10;;;6.80;;
67867;SDS011;54672;46.096;14.470;2022-12-18T12:43:09;16.65;;;7.70;;
67867;SDS011;54672;46.096;14.470;2022-12-18T12:45:59;20.05;;;8.00;;
67867;SDS011;54672;46.096;14.470;2022-12-18T12:48:44;15.13;;;6.78;;
67867;SDS011;54672;46.096;14.470;2022-12-18T12:53:41;26.80;;;10.55;;
67867;SDS011;54672;46.096;14.470;2022-12-18T12:56:07;20.50;;;8.80;;
67867;SDS011;54672;46.096;14.470;2022-12-18T12:58:38;17.58;;;7.53;;
67867;SDS011;54672;46.096;14.470;2022-12-18T13:01:28;14.60;;;7.30;;
67867;SDS011;54672;46.096;14.470;2022-12-18T13:06:58;21.00;;;7.93;;
67867;SDS011;54672;46.096;14.470;2022-12-18T13:09:32;19.67;;;9.60;;
67867;SDS011;54672;46.096;14.470;2022-12-18T13:12:09;22.35;;;7.93;;
67867;SDS011;54672;46.096;14.470;2022-12-18T13:14:57;19.80;;;8.18;;
67867;SDS011;54672;46.096;14.470;2022-12-18T13:17:38;19.88;;;8.32;;
67867;SDS011;54672;46.096;14.470;2022-12-18T13:20:10;9.43;;;4.88;;
67867;SDS011;54672;46.096;14.470;2022-12-18T13:22:45;10.35;;;5.20;;
67867;SDS011;54672;46.096;14.470;2022-12-18T13:25:29;19.00;;;6.97;;
67867;SDS011;54672;46.096;14.470;2022-12-18T13:38:19;19.73;;;8.50;;
67867;SDS011;54672;46.096;14.470;2022-12-18T13:45:49;13.73;;;6.10;;
67867;SDS011;54672;46.096;14.470;2022-12-18T13:48:30;24.85;;;10.10;;
67867;SDS011;54672;46.096;14.470;2022-12-18T13:51:02;15.02;;;5.88;;
67867;SDS011;54672;46.096;14.470;2022-12-18T13:53:34;14.10;;;5.35;;
67867;SDS011;54672;46.096;14.470;2022-12-18T13:56:04;11.32;;;4.53;;
67867;SDS011;54672;46.096;14.470;2022-12-18T13:58:30;17.30;;;6.07;;
67867;SDS011;54672;46.096;14.470;2022-12-18T14:00:56;21.55;;;9.48;;
67867;SDS011;54672;46.096;14.470;2022-12-18T14:03:25;15.80;;;7.07;;
67867;SDS011;54672;46.096;14.470;2022-12-18T14:05:52;24.33;;;9.70;;
67867;SDS011;54672;46.096;14.470;2022-12-18T14:08:20;19.70;;;8.18;;
67867;SDS011;54672;46.096;14.470;2022-12-18T14:10:47;14.20;;;6.07;;
67867;SDS011;54672;46.096;14.470;2022-12-18T14:13:34;23.27;;;10.90;;
67867;SDS011;54672;46.096;14.470;2022-12-18T14:16:03;19.50;;;8.77;;
67867;SDS011;54672;46.096;14.470;2022-12-18T14:21:23;20.30;;;8.67;;
67867;SDS011;54672;46.096;14.470;2022-12-18T14:24:05;19.83;;;9.05;;
67867;SDS011;54672;46.096;14.470;2022-12-18T14:26:37;19.65;;;9.20;;
67867;SDS011;54672;46.096;14.470;2022-12-18T14:29:19;18.48;;;8.35;;
67867;SDS011;54672;46.096;14.470;2022-12-18T14:32:09;34.90;;;10.95;;
67867;SDS011;54672;46.096;14.470;2022-12-18T14:34:39;27.58;;;11.15;;
67867;SDS011;54672;46.096;14.470;2022-12-18T14:37:05;35.90;;;13.65;;
67867;SDS011;54672;46.096;14.470;2022-12-18T14:39:34;15.80;;;6.55;;
67867;SDS011;54672;46.096;14.470;2022-12-18T14:41:59;19.33;;;8.98;;
67867;SDS011;54672;46.096;14.470;2022-12-18T14:44:25;13.13;;;6.43;;
67867;SDS011;54672;46.096;14.470;2022-12-18T14:46:50;20.58;;;7.95;;
67867;SDS011;54672;46.096;14.470;2022-12-18T14:49:31;15.60;;;7.30;;
67867;SDS011;54672;46.096;14.470;2022-12-18T14:54:28;22.58;;;10.25;;
67867;SDS011;54672;46.096;14.470;2022-12-18T14:56:57;15.38;;;7.78;;
67867;SDS011;54672;46.096;14.470;2022-12-18T14:59:37;8.53;;;5.03;;
67867;SDS011;54672;46.096;14.470;2022-12-18T15:04:48;28.77;;;11.50;;
67867;SDS011;54672;46.096;14.470;2022-12-18T15:07:51;27.27;;;12.20;;
67867;SDS011;54672;46.096;14.470;2022-12-18T15:10:19;19.73;;;6.68;;
67867;SDS011;54672;46.096;14.470;2022-12-18T15:12:49;18.05;;;8.23;;
67867;SDS011;54672;46.096;14.470;2022-12-18T15:18:03;18.27;;;6.68;;
67867;SDS011;54672;46.096;14.470;2022-12-18T15:20:32;15.40;;;5.90;;
67867;SDS011;54672;46.096;14.470;2022-12-18T15:23:05;24.60;;;10.90;;
67867;SDS011;54672;46.096;14.470;2022-12-18T15:28:03;17.55;;;7.57;;
67867;SDS011;54672;46.096;14.470;2022-12-18T15:30:40;18.42;;;6.75;;
67867;SDS011;54672;46.096;14.470;2022-12-18T15:33:43;25.65;;;10.35;;
67867;SDS011;54672;46.096;14.470;2022-12-18T15:36:17;27.40;;;11.02;;
67867;SDS011;54672;46.096;14.470;2022-12-18T15:38:46;21.48;;;9.60;;
67867;SDS011;54672;46.096;14.470;2022-12-18T15:41:15;24.17;;;9.73;;
67867;SDS011;54672;46.096;14.470;2022-12-18T15:43:43;25.85;;;9.18;;
67867;SDS011;54672;46.096;14.470;2022-12-18T15:46:13;25.90;;;9.90;;
67867;SDS011;54672;46.096;14.470;2022-12-18T15:48:44;28.15;;;11.07;;
67867;SDS011;54672;46.096;14.470;2022-12-18T15:51:13;23.88;;;9.20;;
67867;SDS011;54672;46.096;14.470;2022-12-18T15:53:39;18.75;;;7.68;;
67867;SDS011;54672;46.096;14.470;2022-12-18T15:56:04;18.25;;;7.72;;
67867;SDS011;54672;46.096;14.470;2022-12-18T15:58:53;19.55;;;8.77;;
67867;SDS011;54672;46.096;14.470;2022-12-18T16:01:19;19.77;;;7.47;;
67867;SDS011;54672;46.096;14.470;2022-12-18T16:03:45;18.20;;;7.60;;
67867;SDS011;54672;46.096;14.470;2022-12-18T16:06:10;19.63;;;8.40;;
67867;SDS011;54672;46.096;14.470;2022-12-18T16:08:36;17.40;;;6.68;;
67867;SDS011;54672;46.096;14.470;2022-12-18T16:11:01;15.45;;;7.28;;
67867;SDS011;54672;46.096;14.470;2022-12-18T16:13:27;18.35;;;8.05;;